createdAt,value
2023-01-07T00:01:12.504Z,101639.53
2023-01-07T00:03:39.781Z,101640.41
2023-01-07T00:06:09.226Z,101636.94
2023-01-07T00:08:38.004Z,101633.34
2023-01-07T00:11:06.795Z,101622.66
2023-01-07T00:13:34.170Z,101624.56
2023-01-07T00:16:02.486Z,101617.47
2023-01-07T00:18:29.114Z,101622.94
2023-01-07T00:21:03.570Z,101617.66
2023-01-07T00:23:31.085Z,101626.59
2023-01-07T00:26:03.528Z,101623.16
2023-01-07T00:28:30.157Z,101617.75
2023-01-07T00:31:01.456Z,101624.97
2023-01-07T00:33:31.056Z,101612.34
2023-01-07T00:36:08.762Z,101605.31
2023-01-07T00:38:36.509Z,101613.28
2023-01-07T00:41:04.483Z,101598.97
2023-01-07T00:43:31.748Z,101602.59
2023-01-07T00:45:58.248Z,101603.56
2023-01-07T00:48:25.202Z,101595.69
2023-01-07T00:50:52.480Z,101589.56
2023-01-07T00:53:19.919Z,101588.97
2023-01-07T00:55:48.024Z,101588.28
2023-01-07T00:58:17.149Z,101588.50
2023-01-07T01:00:44.115Z,101584.22
2023-01-07T01:03:14.217Z,101588.94
2023-01-07T01:05:41.998Z,101582.06
2023-01-07T01:08:09.126Z,101579.38
2023-01-07T01:10:36.857Z,101577.66
2023-01-07T01:13:03.563Z,101567.91
2023-01-07T01:15:30.340Z,101570.69
2023-01-07T01:17:56.817Z,101564.56
2023-01-07T01:20:23.378Z,101561.06
2023-01-07T01:22:50.005Z,101564.03
2023-01-07T01:25:16.546Z,101558.91
2023-01-07T01:27:43.920Z,101566.22
2023-01-07T01:30:10.796Z,101559.13
2023-01-07T01:32:39.368Z,101558.22
2023-01-07T01:35:06.408Z,101568.16
2023-01-07T01:37:32.857Z,101561.22
2023-01-07T01:40:03.856Z,101562.28
2023-01-07T01:42:31.652Z,101554.34
2023-01-07T01:45:00.549Z,101562.34
2023-01-07T01:47:40.771Z,101559.75
2023-01-07T01:50:19.936Z,101565.22
2023-01-07T01:52:54.508Z,101560.91
2023-01-07T01:55:25.730Z,101555.59
2023-01-07T01:57:56.902Z,101557.31
2023-01-07T02:00:23.529Z,101552.03
2023-01-07T02:02:57.719Z,101560.03
2023-01-07T02:05:34.192Z,101558.03
2023-01-07T02:08:00.792Z,101552.34
2023-01-07T02:10:28.598Z,101561.13
2023-01-07T02:13:25.514Z,101558.41
2023-01-07T02:16:18.109Z,101558.63
2023-01-07T02:19:03.167Z,101547.16
2023-01-07T02:21:29.553Z,101555.81
2023-01-07T02:24:35.990Z,101542.25
2023-01-07T02:27:23.732Z,101552.09
2023-01-07T02:30:18.885Z,101544.84
2023-01-07T02:32:45.534Z,101546.59
2023-01-07T02:35:43.953Z,101553.63
2023-01-07T02:38:29.232Z,101548.16
2023-01-07T02:41:13.875Z,101549.03
2023-01-07T02:44:03.291Z,101542.56
2023-01-07T02:46:35.626Z,101547.00
2023-01-07T02:49:07.480Z,101546.31
2023-01-07T02:51:35.848Z,101544.00
2023-01-07T02:54:04.027Z,101539.66
2023-01-07T02:56:59.160Z,101530.28
2023-01-07T02:59:48.424Z,101541.44
2023-01-07T03:02:48.415Z,101528.06
2023-01-07T03:05:41.650Z,101528.66
2023-01-07T03:08:28.318Z,101517.88
2023-01-07T03:11:01.374Z,101516.31
2023-01-07T03:13:49.024Z,101505.72
2023-01-07T03:16:27.652Z,101509.38
2023-01-07T03:19:00.862Z,101508.53
2023-01-07T03:21:31.775Z,101512.06
2023-01-07T03:24:00.902Z,101508.44
2023-01-07T03:26:33.763Z,101501.28
2023-01-07T03:29:02.831Z,101504.94
2023-01-07T03:31:31.703Z,101496.00
2023-01-07T03:34:08.214Z,101495.16
2023-01-07T03:36:40.437Z,101492.44
2023-01-07T03:39:10.696Z,101488.19
2023-01-07T03:41:59.362Z,101496.56
2023-01-07T03:44:26.511Z,101482.41
2023-01-07T03:46:53.680Z,101483.53
2023-01-07T03:49:20.234Z,101484.59
2023-01-07T03:51:49.329Z,101475.63
2023-01-07T03:54:16.186Z,101484.94
2023-01-07T03:56:42.888Z,101476.16
2023-01-07T03:59:09.501Z,101468.69
2023-01-07T04:01:36.117Z,101472.25
2023-01-07T04:04:03.534Z,101476.00
2023-01-07T04:06:30.638Z,101460.00
2023-01-07T04:08:57.358Z,101454.06
2023-01-07T04:11:23.974Z,101461.16
2023-01-07T04:13:50.838Z,101457.50
2023-01-07T04:16:17.889Z,101456.75
2023-01-07T04:18:44.393Z,101451.53
2023-01-07T04:21:10.913Z,101448.81
2023-01-07T04:23:37.468Z,101452.31
2023-01-07T04:26:04.137Z,101443.44
2023-01-07T04:28:31.190Z,101441.72
2023-01-07T04:31:00.953Z,101444.59
2023-01-07T04:33:27.668Z,101436.53
2023-01-07T04:35:54.392Z,101438.34
2023-01-07T04:38:22.613Z,101431.03
2023-01-07T04:40:49.670Z,101430.84
2023-01-07T04:43:16.681Z,101426.44
2023-01-07T04:45:43.109Z,101423.84
2023-01-07T04:48:09.691Z,101419.41
2023-01-07T04:50:36.525Z,101423.06
2023-01-07T04:53:03.324Z,101420.09
2023-01-07T04:55:30.505Z,101422.00
2023-01-07T04:57:57.187Z,101420.19
2023-01-07T05:00:23.684Z,101423.75
2023-01-07T05:02:53.206Z,101412.00
2023-01-07T05:05:21.706Z,101417.50
2023-01-07T05:07:48.691Z,101414.59
2023-01-07T05:10:16.467Z,101415.41
2023-01-07T05:12:43.178Z,101406.16
2023-01-07T05:15:11.632Z,101397.91
2023-01-07T05:17:40.649Z,101396.84
2023-01-07T05:20:08.211Z,101404.00
2023-01-07T05:22:36.145Z,101406.69
2023-01-07T05:25:03.496Z,101402.13
2023-01-07T05:27:29.982Z,101400.22
2023-01-07T05:29:57.711Z,101398.50
2023-01-07T05:32:24.308Z,101396.50
2023-01-07T05:34:51.519Z,101394.84
2023-01-07T05:37:18.026Z,101395.63
2023-01-07T05:39:45.415Z,101390.34
2023-01-07T05:42:16.397Z,101386.66
2023-01-07T05:44:42.880Z,101391.00
2023-01-07T05:47:09.402Z,101397.16
2023-01-07T05:49:35.803Z,101391.75
2023-01-07T05:52:02.261Z,101381.19
2023-01-07T05:54:28.845Z,101377.56
2023-01-07T05:56:55.309Z,101382.16
2023-01-07T05:59:21.729Z,101383.09
2023-01-07T06:01:48.122Z,101387.63
2023-01-07T06:04:14.639Z,101376.00
2023-01-07T06:06:41.274Z,101375.13
2023-01-07T06:09:07.820Z,101371.47
2023-01-07T06:11:34.268Z,101364.44
2023-01-07T06:14:00.701Z,101365.41
2023-01-07T06:16:27.128Z,101365.31
2023-01-07T06:18:53.619Z,101358.84
2023-01-07T06:21:21.456Z,101350.63
2023-01-07T06:23:47.917Z,101344.94
2023-01-07T06:26:14.374Z,101347.72
2023-01-07T06:28:40.773Z,101349.25
2023-01-07T06:31:09.737Z,101334.66
2023-01-07T06:33:37.793Z,101329.06
2023-01-07T06:36:04.981Z,101325.22
2023-01-07T06:38:31.503Z,101330.41
2023-01-07T06:41:02.131Z,101333.00
2023-01-07T06:43:29.203Z,101325.72
2023-01-07T06:45:56.162Z,101321.19
2023-01-07T06:48:22.742Z,101326.84
2023-01-07T06:50:49.202Z,101309.25
2023-01-07T06:53:15.690Z,101315.78
2023-01-07T06:55:48.904Z,101315.00
2023-01-07T06:58:15.983Z,101312.13
2023-01-07T07:00:42.512Z,101307.91
2023-01-07T07:03:08.992Z,101298.84
2023-01-07T07:05:35.629Z,101300.03
2023-01-07T07:08:02.174Z,101298.47
2023-01-07T07:10:28.640Z,101296.91
2023-01-07T07:12:55.058Z,101299.03
2023-01-07T07:15:21.542Z,101291.44
2023-01-07T07:17:48.089Z,101293.44
2023-01-07T07:20:14.521Z,101287.59
2023-01-07T07:22:47.746Z,101283.34
2023-01-07T07:25:15.012Z,101279.22
2023-01-07T07:27:44.705Z,101273.25
2023-01-07T07:30:12.031Z,101276.88
2023-01-07T07:32:38.404Z,101282.16
2023-01-07T07:35:05.188Z,101278.63
2023-01-07T07:37:31.632Z,101273.06
2023-01-07T07:39:58.108Z,101269.00
2023-01-07T07:42:24.636Z,101271.00
2023-01-07T07:44:51.076Z,101267.38
2023-01-07T07:47:18.494Z,101275.69
2023-01-07T07:49:44.955Z,101273.78
2023-01-07T07:52:11.513Z,101279.28
2023-01-07T07:54:37.913Z,101278.13
2023-01-07T07:57:04.677Z,101275.25
2023-01-07T07:59:31.244Z,101269.47
2023-01-07T08:01:57.792Z,101271.91
2023-01-07T08:04:25.512Z,101268.75
2023-01-07T08:06:51.999Z,101264.63
2023-01-07T08:09:18.531Z,101266.81
2023-01-07T08:11:45.008Z,101258.47
2023-01-07T08:14:11.636Z,101262.69
2023-01-07T08:16:38.216Z,101250.78
2023-01-07T08:19:04.766Z,101264.03
2023-01-07T08:21:31.186Z,101250.38
2023-01-07T08:23:57.653Z,101251.03
2023-01-07T08:26:24.417Z,101249.91
2023-01-07T08:28:51.383Z,101243.22
2023-01-07T08:31:17.958Z,101242.75
2023-01-07T08:33:44.416Z,101238.72
2023-01-07T08:36:22.175Z,101239.19
2023-01-07T08:38:54.055Z,101236.75
2023-01-07T08:41:23.178Z,101234.41
2023-01-07T08:43:50.373Z,101234.19
2023-01-07T08:46:17.422Z,101243.25
2023-01-07T08:48:44.049Z,101237.56
2023-01-07T08:51:10.619Z,101229.19
2023-01-07T08:53:37.215Z,101237.84
2023-01-07T08:56:03.833Z,101230.31
2023-01-07T08:58:30.321Z,101233.56
2023-01-07T09:01:02.846Z,101235.53
2023-01-07T09:03:29.827Z,101226.97
2023-01-07T09:05:56.411Z,101227.63
2023-01-07T09:08:22.960Z,101226.63
2023-01-07T09:10:49.662Z,101234.16
2023-01-07T09:13:16.114Z,101229.00
2023-01-07T09:15:42.703Z,101227.47
2023-01-07T09:18:09.386Z,101227.66
2023-01-07T09:20:35.823Z,101227.06
2023-01-07T09:23:02.278Z,101222.56
2023-01-07T09:25:28.682Z,101220.78
2023-01-07T09:27:55.168Z,101214.19
2023-01-07T09:30:21.695Z,101212.25
2023-01-07T09:32:48.182Z,101208.47
2023-01-07T09:35:15.561Z,101209.22
2023-01-07T09:37:42.073Z,101201.69
2023-01-07T09:40:21.428Z,101206.69
2023-01-07T09:43:03.061Z,101206.13
2023-01-07T09:45:37.361Z,101196.50
2023-01-07T09:48:19.645Z,101196.50
2023-01-07T09:50:55.335Z,101189.09
2023-01-07T09:53:30.971Z,101192.31
2023-01-07T09:56:12.384Z,101189.53
2023-01-07T09:58:44.993Z,101181.44
2023-01-07T10:01:24.470Z,101174.94
2023-01-07T10:04:06.666Z,101160.50
2023-01-07T10:06:43.755Z,101168.38
2023-01-07T10:09:22.657Z,101158.34
2023-01-07T10:12:07.883Z,101159.41
2023-01-07T10:14:51.534Z,101152.19
2023-01-07T10:17:56.166Z,101147.78
2023-01-07T10:20:37.613Z,101135.13
2023-01-07T10:23:13.576Z,101129.63
2023-01-07T10:25:47.962Z,101131.38
2023-01-07T10:28:35.885Z,101121.63
2023-01-07T10:31:05.116Z,101120.56
2023-01-07T10:33:33.578Z,101118.28
2023-01-07T10:36:03.983Z,101118.28
2023-01-07T10:38:36.052Z,101109.56
2023-01-07T10:41:10.004Z,101105.88
2023-01-07T10:43:59.803Z,101094.63
2023-01-07T10:46:33.584Z,101086.13
2023-01-07T10:49:18.434Z,101082.22
2023-01-07T10:52:06.633Z,101067.09
2023-01-07T10:54:42.504Z,101054.97
2023-01-07T10:57:24.358Z,101053.78
2023-01-07T10:59:53.676Z,101062.50
2023-01-07T11:02:23.100Z,101045.78
2023-01-07T11:04:49.840Z,101041.31
2023-01-07T11:07:28.790Z,101039.13
2023-01-07T11:09:56.739Z,101028.91
2023-01-07T11:12:44.788Z,101030.75
2023-01-07T11:15:21.458Z,101031.97
2023-01-07T11:17:53.845Z,101031.00
2023-01-07T11:20:46.769Z,101021.50
2023-01-07T11:23:31.726Z,101010.38
2023-01-07T11:26:07.336Z,101008.47
2023-01-07T11:28:34.417Z,101000.50
2023-01-07T11:31:01.787Z,100995.84
2023-01-07T11:34:02.094Z,100986.16
2023-01-07T11:36:43.014Z,100973.84
2023-01-07T11:39:17.836Z,100973.03
2023-01-07T11:41:58.308Z,100972.59
2023-01-07T11:44:26.136Z,100952.47
2023-01-07T11:46:54.139Z,100943.88
2023-01-07T11:49:24.984Z,100943.25
2023-01-07T11:51:51.684Z,100946.09
2023-01-07T11:54:26.568Z,100934.66
2023-01-07T11:56:55.179Z,100923.72
2023-01-07T11:59:29.916Z,100922.38
2023-01-07T12:01:59.661Z,100918.41
2023-01-07T12:04:32.337Z,100906.03
2023-01-07T12:07:15.024Z,100901.09
2023-01-07T12:09:43.989Z,100899.63
2023-01-07T12:12:39.278Z,100886.09
2023-01-07T12:15:26.535Z,100881.81
2023-01-07T12:18:24.565Z,100880.31
2023-01-07T12:21:28.164Z,100879.31
2023-01-07T12:24:13.061Z,100870.06
2023-01-07T12:26:48.588Z,100879.13
2023-01-07T12:29:53.278Z,100876.91
2023-01-07T12:32:44.703Z,100862.03
2023-01-07T12:35:33.764Z,100857.00
2023-01-07T12:38:06.049Z,100862.88
2023-01-07T12:40:44.677Z,100853.91
2023-01-07T12:43:26.381Z,100855.88
2023-01-07T12:45:56.440Z,100848.50
2023-01-07T12:48:41.452Z,100840.53
2023-01-07T12:51:21.211Z,100845.81
2023-01-07T12:53:53.089Z,100834.75
2023-01-07T12:56:27.230Z,100829.22
2023-01-07T12:59:05.721Z,100825.94
2023-01-07T13:01:52.816Z,100818.06
2023-01-07T13:04:57.444Z,100812.03
2023-01-07T13:07:54.848Z,100800.53
2023-01-07T13:10:26.384Z,100798.03
2023-01-07T13:12:58.373Z,100796.56
2023-01-07T13:15:27.832Z,100783.91
2023-01-07T13:18:15.903Z,100772.59
2023-01-07T13:21:08.682Z,100759.34
2023-01-07T13:24:07.246Z,100763.41
2023-01-07T13:27:00.230Z,100762.91
2023-01-07T13:29:45.404Z,100753.44
2023-01-07T13:32:33.443Z,100755.66
2023-01-07T13:35:24.919Z,100749.75
2023-01-07T13:38:22.557Z,100742.09
2023-01-07T13:40:48.972Z,100728.72
2023-01-07T13:43:55.686Z,100732.66
2023-01-07T13:46:30.792Z,100726.66
2023-01-07T13:48:57.698Z,100723.94
2023-01-07T13:51:31.356Z,100728.59
2023-01-07T13:53:57.972Z,100712.53
2023-01-07T13:56:24.449Z,100706.88
2023-01-07T13:58:58.372Z,100709.56
2023-01-07T14:01:27.117Z,100703.22
2023-01-07T14:03:58.855Z,100699.41
2023-01-07T14:06:31.075Z,100697.44
2023-01-07T14:09:13.445Z,100689.22
2023-01-07T14:12:18.226Z,100688.22
2023-01-07T14:14:57.727Z,100687.72
2023-01-07T14:17:32.335Z,100678.53
2023-01-07T14:20:18.787Z,100677.91
2023-01-07T14:23:14.345Z,100674.84
2023-01-07T14:26:12.274Z,100675.94
2023-01-07T14:29:09.733Z,100677.75
2023-01-07T14:31:36.705Z,100675.31
2023-01-07T14:34:15.878Z,100674.56
2023-01-07T14:37:12.968Z,100662.31
2023-01-07T14:39:43.441Z,100650.88
2023-01-07T14:42:19.021Z,100656.41
2023-01-07T14:44:54.524Z,100643.16
2023-01-07T14:47:45.792Z,100643.16
2023-01-07T14:50:38.555Z,100641.41
2023-01-07T14:53:29.932Z,100636.03
2023-01-07T14:56:16.540Z,100635.16
2023-01-07T14:58:55.866Z,100642.41
2023-01-07T15:01:42.435Z,100637.97
2023-01-07T15:04:24.718Z,100642.53
2023-01-07T15:06:58.931Z,100634.19
2023-01-07T15:09:53.509Z,100644.00
2023-01-07T15:12:47.379Z,100654.91
2023-01-07T15:15:33.953Z,100649.38
2023-01-07T15:18:00.514Z,100635.91
2023-01-07T15:20:41.514Z,100625.22
2023-01-07T15:23:16.136Z,100627.06
2023-01-07T15:26:00.393Z,100628.91
2023-01-07T15:28:40.701Z,100620.06
2023-01-07T15:31:19.017Z,100617.50
2023-01-07T15:33:54.875Z,100605.09
2023-01-07T15:36:21.733Z,100599.81
2023-01-07T15:38:52.876Z,100601.06
2023-01-07T15:41:30.341Z,100605.84
2023-01-07T15:43:58.790Z,100605.09
2023-01-07T15:46:27.110Z,100600.56
2023-01-07T15:49:04.739Z,100602.50
2023-01-07T15:51:32.189Z,100608.88
2023-01-07T15:53:58.616Z,100610.47
2023-01-07T15:56:25.185Z,100590.59
2023-01-07T15:58:51.838Z,100579.09
2023-01-07T16:01:23.960Z,100584.72
2023-01-07T16:03:54.583Z,100587.41
2023-01-07T16:06:34.858Z,100581.31
2023-01-07T16:09:19.100Z,100576.00
2023-01-07T16:11:45.753Z,100580.44
2023-01-07T16:14:18.308Z,100577.00
2023-01-07T16:16:45.024Z,100571.72
2023-01-07T16:19:17.549Z,100572.84
2023-01-07T16:21:51.877Z,100565.69
2023-01-07T16:24:19.132Z,100569.38
2023-01-07T16:26:52.913Z,100576.72
2023-01-07T16:29:26.988Z,100557.97
2023-01-07T16:31:54.243Z,100554.41
2023-01-07T16:34:23.637Z,100542.88
2023-01-07T16:36:53.725Z,100537.22
2023-01-07T16:39:27.227Z,100544.91
2023-01-07T16:42:14.316Z,100549.78
2023-01-07T16:44:46.497Z,100550.34
2023-01-07T16:47:23.996Z,100540.25
2023-01-07T16:49:52.003Z,100546.09
2023-01-07T16:52:26.179Z,100543.53
2023-01-07T16:54:52.741Z,100547.19
2023-01-07T16:57:26.406Z,100545.34
2023-01-07T16:59:55.439Z,100551.94
2023-01-07T17:02:42.686Z,100563.94
2023-01-07T17:05:21.253Z,100563.19
2023-01-07T17:07:54.618Z,100558.28
2023-01-07T17:10:38.791Z,100564.97
2023-01-07T17:13:26.912Z,100564.56
2023-01-07T17:16:16.900Z,100560.19
2023-01-07T17:18:43.566Z,100551.94
2023-01-07T17:21:32.213Z,100550.69
2023-01-07T17:23:58.798Z,100548.31
2023-01-07T17:26:27.740Z,100551.34
2023-01-07T17:28:57.188Z,100528.09
2023-01-07T17:31:24.520Z,100547.81
2023-01-07T17:33:54.961Z,100538.84
2023-01-07T17:36:23.968Z,100525.53
2023-01-07T17:38:50.689Z,100518.19
2023-01-07T17:41:38.821Z,100513.66
2023-01-07T17:44:07.707Z,100529.81
2023-01-07T17:46:34.223Z,100515.50
2023-01-07T17:49:01.674Z,100512.69
2023-01-07T17:51:28.591Z,100504.50
2023-01-07T17:53:58.741Z,100503.53
2023-01-07T17:56:25.534Z,100507.09
2023-01-07T17:58:53.978Z,100501.59
2023-01-07T18:01:23.473Z,100495.34
2023-01-07T18:03:51.571Z,100490.94
2023-01-07T18:06:20.801Z,100487.06
2023-01-07T18:08:48.719Z,100487.66
2023-01-07T18:11:46.048Z,100475.19
2023-01-07T18:14:14.588Z,100477.75
2023-01-07T18:16:42.058Z,100484.13
2023-01-07T18:19:12.209Z,100475.53
2023-01-07T18:21:39.229Z,100472.44
2023-01-07T18:24:06.075Z,100484.41
2023-01-07T18:26:32.688Z,100471.94
2023-01-07T18:28:59.181Z,100475.34
2023-01-07T18:31:25.751Z,100475.25
2023-01-07T18:33:52.209Z,100467.28
2023-01-07T18:36:18.635Z,100479.78
2023-01-07T18:38:45.212Z,100468.13
2023-01-07T18:41:11.625Z,100464.38
2023-01-07T18:43:38.141Z,100448.00
2023-01-07T18:46:08.593Z,100458.75
2023-01-07T18:48:36.098Z,100462.19
2023-01-07T18:51:02.582Z,100476.50
2023-01-07T18:53:29.725Z,100468.53
2023-01-07T18:56:02.072Z,100461.06
2023-01-07T18:58:28.626Z,100473.88
2023-01-07T19:00:55.231Z,100467.72
2023-01-07T19:03:21.765Z,100469.03
2023-01-07T19:05:48.231Z,100469.25
2023-01-07T19:08:14.639Z,100467.88
2023-01-07T19:10:41.841Z,100466.06
2023-01-07T19:13:08.383Z,100471.09
2023-01-07T19:15:34.988Z,100470.13
2023-01-07T19:18:01.453Z,100453.66
2023-01-07T19:20:27.844Z,100450.41
2023-01-07T19:23:00.229Z,100448.22
2023-01-07T19:25:28.355Z,100442.59
2023-01-07T19:27:55.136Z,100453.78
2023-01-07T19:30:21.717Z,100448.16
2023-01-07T19:32:48.191Z,100440.72
2023-01-07T19:35:15.079Z,100434.34
2023-01-07T19:37:42.320Z,100452.00
2023-01-07T19:40:09.959Z,100440.22
2023-01-07T19:42:36.687Z,100442.81
2023-01-07T19:45:03.319Z,100437.34
2023-01-07T19:47:29.752Z,100440.97
2023-01-07T19:49:57.478Z,100433.78
2023-01-07T19:52:24.169Z,100445.28
2023-01-07T19:54:50.747Z,100433.66
2023-01-07T19:57:17.145Z,100431.22
2023-01-07T19:59:43.732Z,100436.47
2023-01-07T20:02:12.411Z,100439.16
2023-01-07T20:04:40.569Z,100434.41
2023-01-07T20:07:06.984Z,100426.34
2023-01-07T20:09:34.349Z,100426.22
2023-01-07T20:12:01.265Z,100415.06
2023-01-07T20:14:28.221Z,100409.56
2023-01-07T20:16:54.728Z,100410.56
2023-01-07T20:19:23.260Z,100422.78
2023-01-07T20:21:49.761Z,100410.09
2023-01-07T20:24:16.337Z,100406.44
2023-01-07T20:26:42.819Z,100402.50
2023-01-07T20:29:09.269Z,100388.91
2023-01-07T20:31:35.712Z,100397.63
2023-01-07T20:34:03.354Z,100391.41
2023-01-07T20:36:31.868Z,100405.59
2023-01-07T20:39:03.344Z,100411.84
2023-01-07T20:41:29.848Z,100403.13
2023-01-07T20:43:58.974Z,100406.44
2023-01-07T20:46:26.859Z,100408.00
2023-01-07T20:48:53.310Z,100415.31
2023-01-07T20:51:20.337Z,100411.13
2023-01-07T20:53:47.599Z,100403.19
2023-01-07T20:56:18.825Z,100402.44
2023-01-07T20:58:45.646Z,100401.59
2023-01-07T21:01:14.735Z,100399.84
2023-01-07T21:03:42.070Z,100392.75
2023-01-07T21:06:10.593Z,100386.28
2023-01-07T21:08:38.107Z,100379.81
2023-01-07T21:11:09.775Z,100375.50
2023-01-07T21:13:36.325Z,100368.91
2023-01-07T21:16:04.043Z,100377.63
2023-01-07T21:18:31.883Z,100378.25
2023-01-07T21:20:58.386Z,100378.13
2023-01-07T21:23:26.399Z,100373.50
2023-01-07T21:25:53.539Z,100361.47
2023-01-07T21:28:20.167Z,100378.38
2023-01-07T21:30:46.733Z,100373.88
2023-01-07T21:33:13.312Z,100382.81
2023-01-07T21:35:40.851Z,100384.53
2023-01-07T21:38:07.863Z,100396.16
2023-01-07T21:40:34.741Z,100378.88
2023-01-07T21:43:01.205Z,100366.16
2023-01-07T21:45:27.711Z,100367.53
2023-01-07T21:47:54.200Z,100374.63
2023-01-07T21:50:20.756Z,100366.66
2023-01-07T21:52:47.225Z,100358.72
2023-01-07T21:55:13.719Z,100353.81
2023-01-07T21:57:40.343Z,100358.09
2023-01-07T22:00:07.290Z,100370.59
2023-01-07T22:02:38.753Z,100377.81
2023-01-07T22:05:05.628Z,100363.47
2023-01-07T22:07:32.140Z,100363.28
2023-01-07T22:09:58.637Z,100361.66
2023-01-07T22:12:25.678Z,100360.28
2023-01-07T22:14:52.143Z,100361.03
2023-01-07T22:17:18.857Z,100360.91
2023-01-07T22:19:45.421Z,100368.00
2023-01-07T22:22:11.938Z,100363.47
2023-01-07T22:24:38.388Z,100355.53
2023-01-07T22:27:04.812Z,100357.84
2023-01-07T22:29:32.289Z,100354.28
2023-01-07T22:31:58.986Z,100355.16
2023-01-07T22:34:25.422Z,100344.50
2023-01-07T22:37:01.301Z,100354.06
2023-01-07T22:39:45.960Z,100349.41
2023-01-07T22:42:17.466Z,100350.13
2023-01-07T22:44:49.891Z,100347.44
2023-01-07T22:47:20.739Z,100343.53
2023-01-07T22:49:48.891Z,100352.25
2023-01-07T22:52:15.429Z,100351.75
2023-01-07T22:54:41.990Z,100353.56
2023-01-07T22:57:10.886Z,100364.97
2023-01-07T22:59:37.652Z,100363.75
2023-01-07T23:02:04.194Z,100363.88
2023-01-07T23:04:30.745Z,100356.56
2023-01-07T23:06:57.772Z,100365.34
2023-01-07T23:09:24.295Z,100364.25
2023-01-07T23:11:51.581Z,100350.91
2023-01-07T23:14:22.277Z,100358.00
2023-01-07T23:16:49.923Z,100338.19
2023-01-07T23:19:17.466Z,100345.41
2023-01-07T23:21:45.911Z,100345.28
2023-01-07T23:24:13.590Z,100351.66
2023-01-07T23:26:40.841Z,100356.03
2023-01-07T23:29:07.676Z,100355.78
2023-01-07T23:31:36.014Z,100354.84
2023-01-07T23:34:02.567Z,100350.28
2023-01-07T23:36:29.152Z,100345.16
2023-01-07T23:38:55.895Z,100348.94
2023-01-07T23:41:22.641Z,100337.44
2023-01-07T23:43:49.736Z,100353.09
2023-01-07T23:46:16.308Z,100379.56
2023-01-07T23:48:42.789Z,100425.00
2023-01-07T23:51:12.326Z,100428.03
2023-01-07T23:53:38.982Z,100415.53
2023-01-07T23:56:06.610Z,100405.50
2023-01-07T23:58:33.606Z,100412.94
